sensor_id;sensor_type;location;lat;lon;timestamp;P1;durP1;ratioP1;P2;durP2;ratioP2
16354;SDS011;8287;51.644;8.494;2023-04-01T00:01:10;1.58;;;0.70;;
16354;SDS011;8287;51.644;8.494;2023-04-01T00:03:39;1.20;;;0.63;;
16354;SDS011;8287;51.644;8.494;2023-04-01T00:06:06;0.73;;;0.50;;
16354;SDS011;8287;51.644;8.494;2023-04-01T00:08:33;0.45;;;0.40;;
16354;SDS011;8287;51.644;8.494;2023-04-01T00:10:59;2.33;;;0.60;;
16354;SDS011;8287;51.644;8.494;2023-04-01T00:13:26;0.65;;;0.43;;
16354;SDS011;8287;51.644;8.494;2023-04-01T00:15:54;0.93;;;0.30;;
16354;SDS011;8287;51.644;8.494;2023-04-01T00:18:21;0.50;;;0.32;;
16354;SDS011;8287;51.644;8.494;2023-04-01T00:20:49;0.25;;;0.13;;
16354;SDS011;8287;51.644;8.494;2023-04-01T00:23:17;0.43;;;0.30;;
16354;SDS011;8287;51.644;8.494;2023-04-01T00:25:44;0.65;;;0.10;;
16354;SDS011;8287;51.644;8.494;2023-04-01T00:28:13;2.30;;;0.50;;
16354;SDS011;8287;51.644;8.494;2023-04-01T00:30:39;1.35;;;0.30;;
16354;SDS011;8287;51.644;8.494;2023-04-01T00:33:07;0.10;;;0.10;;
16354;SDS011;8287;51.644;8.494;2023-04-01T00:35:34;5.07;;;0.30;;
16354;SDS011;8287;51.644;8.494;2023-04-01T00:38:00;2.42;;;0.25;;
16354;SDS011;8287;51.644;8.494;2023-04-01T00:40:28;0.50;;;0.35;;
16354;SDS011;8287;51.644;8.494;2023-04-01T00:42:56;0.50;;;0.28;;
16354;SDS011;8287;51.644;8.494;2023-04-01T00:45:29;0.30;;;0.30;;
16354;SDS011;8287;51.644;8.494;2023-04-01T00:47:58;1.40;;;0.38;;
16354;SDS011;8287;51.644;8.494;2023-04-01T00:50:29;1.20;;;0.40;;
16354;SDS011;8287;51.644;8.494;2023-04-01T00:52:57;0.52;;;0.38;;
16354;SDS011;8287;51.644;8.494;2023-04-01T00:55:26;0.22;;;0.20;;
16354;SDS011;8287;51.644;8.494;2023-04-01T00:57:55;0.45;;;0.20;;
16354;SDS011;8287;51.644;8.494;2023-04-01T01:00:24;0.82;;;0.15;;
16354;SDS011;8287;51.644;8.494;2023-04-01T01:02:51;0.55;;;0.30;;
16354;SDS011;8287;51.644;8.494;2023-04-01T01:05:19;0.55;;;0.47;;
16354;SDS011;8287;51.644;8.494;2023-04-01T01:08:00;0.30;;;0.20;;
16354;SDS011;8287;51.644;8.494;2023-04-01T01:10:33;2.33;;;0.60;;
16354;SDS011;8287;51.644;8.494;2023-04-01T01:13:07;0.65;;;0.28;;
16354;SDS011;8287;51.644;8.494;2023-04-01T01:15:40;0.50;;;0.20;;
16354;SDS011;8287;51.644;8.494;2023-04-01T01:18:14;1.88;;;0.38;;
16354;SDS011;8287;51.644;8.494;2023-04-01T01:20:54;2.17;;;0.35;;
16354;SDS011;8287;51.644;8.494;2023-04-01T01:26:53;0.32;;;0.28;;
16354;SDS011;8287;51.644;8.494;2023-04-01T01:29:47;2.05;;;0.32;;
16354;SDS011;8287;51.644;8.494;2023-04-01T01:32:48;0.63;;;0.35;;
16354;SDS011;8287;51.644;8.494;2023-04-01T01:35:29;0.60;;;0.20;;
16354;SDS011;8287;51.644;8.494;2023-04-01T01:38:01;0.43;;;0.10;;
16354;SDS011;8287;51.644;8.494;2023-04-01T01:40:30;1.30;;;0.13;;
16354;SDS011;8287;51.644;8.494;2023-04-01T01:43:02;0.90;;;0.32;;
16354;SDS011;8287;51.644;8.494;2023-04-01T01:45:32;0.98;;;0.20;;
16354;SDS011;8287;51.644;8.494;2023-04-01T01:48:04;0.60;;;0.20;;
16354;SDS011;8287;51.644;8.494;2023-04-01T01:50:35;1.90;;;0.47;;
16354;SDS011;8287;51.644;8.494;2023-04-01T01:53:04;1.00;;;0.30;;
16354;SDS011;8287;51.644;8.494;2023-04-01T01:55:32;0.75;;;0.40;;
16354;SDS011;8287;51.644;8.494;2023-04-01T01:58:00;0.43;;;0.20;;
16354;SDS011;8287;51.644;8.494;2023-04-01T02:00:31;1.23;;;0.35;;
16354;SDS011;8287;51.644;8.494;2023-04-01T02:02:59;0.75;;;0.20;;
16354;SDS011;8287;51.644;8.494;2023-04-01T02:05:28;0.57;;;0.30;;
16354;SDS011;8287;51.644;8.494;2023-04-01T02:08:00;1.75;;;0.20;;
16354;SDS011;8287;51.644;8.494;2023-04-01T02:10:31;0.38;;;0.38;;
16354;SDS011;8287;51.644;8.494;2023-04-01T02:13:04;1.02;;;0.20;;
16354;SDS011;8287;51.644;8.494;2023-04-01T02:15:34;0.88;;;0.35;;
16354;SDS011;8287;51.644;8.494;2023-04-01T02:18:07;1.65;;;0.30;;
16354;SDS011;8287;51.644;8.494;2023-04-01T02:20:35;4.60;;;0.70;;
16354;SDS011;8287;51.644;8.494;2023-04-01T02:23:06;0.20;;;0.10;;
16354;SDS011;8287;51.644;8.494;2023-04-01T02:25:35;1.17;;;0.20;;
16354;SDS011;8287;51.644;8.494;2023-04-01T02:28:04;2.45;;;0.20;;
16354;SDS011;8287;51.644;8.494;2023-04-01T02:30:33;1.33;;;0.30;;
16354;SDS011;8287;51.644;8.494;2023-04-01T02:33:01;0.55;;;0.10;;
16354;SDS011;8287;51.644;8.494;2023-04-01T02:35:30;0.98;;;0.40;;
16354;SDS011;8287;51.644;8.494;2023-04-01T02:37:59;1.67;;;0.32;;
16354;SDS011;8287;51.644;8.494;2023-04-01T02:40:28;0.22;;;0.20;;
16354;SDS011;8287;51.644;8.494;2023-04-01T02:42:55;0.88;;;0.25;;
16354;SDS011;8287;51.644;8.494;2023-04-01T02:45:22;0.63;;;0.25;;
16354;SDS011;8287;51.644;8.494;2023-04-01T02:47:48;0.57;;;0.32;;
16354;SDS011;8287;51.644;8.494;2023-04-01T02:50:15;0.28;;;0.10;;
16354;SDS011;8287;51.644;8.494;2023-04-01T02:52:42;1.10;;;0.32;;
16354;SDS011;8287;51.644;8.494;2023-04-01T02:55:08;1.15;;;0.52;;
16354;SDS011;8287;51.644;8.494;2023-04-01T02:57:36;0.75;;;0.35;;
16354;SDS011;8287;51.644;8.494;2023-04-01T03:00:03;0.85;;;0.10;;
16354;SDS011;8287;51.644;8.494;2023-04-01T03:02:36;0.20;;;0.13;;
16354;SDS011;8287;51.644;8.494;2023-04-01T03:05:03;0.80;;;0.22;;
16354;SDS011;8287;51.644;8.494;2023-04-01T03:07:30;1.65;;;0.20;;
16354;SDS011;8287;51.644;8.494;2023-04-01T03:09:57;0.17;;;0.15;;
16354;SDS011;8287;51.644;8.494;2023-04-01T03:12:23;0.30;;;0.20;;
16354;SDS011;8287;51.644;8.494;2023-04-01T03:14:51;0.30;;;0.30;;
16354;SDS011;8287;51.644;8.494;2023-04-01T03:17:18;0.95;;;0.30;;
16354;SDS011;8287;51.644;8.494;2023-04-01T03:19:44;0.95;;;0.50;;
16354;SDS011;8287;51.644;8.494;2023-04-01T03:22:11;0.85;;;0.30;;
16354;SDS011;8287;51.644;8.494;2023-04-01T03:24:37;1.23;;;0.63;;
16354;SDS011;8287;51.644;8.494;2023-04-01T03:27:04;0.20;;;0.10;;
16354;SDS011;8287;51.644;8.494;2023-04-01T03:29:31;3.05;;;0.40;;
16354;SDS011;8287;51.644;8.494;2023-04-01T03:31:58;1.70;;;0.20;;
16354;SDS011;8287;51.644;8.494;2023-04-01T03:34:25;0.43;;;0.10;;
16354;SDS011;8287;51.644;8.494;2023-04-01T03:36:52;0.52;;;0.20;;
16354;SDS011;8287;51.644;8.494;2023-04-01T03:39:18;1.45;;;0.10;;
16354;SDS011;8287;51.644;8.494;2023-04-01T03:41:45;0.15;;;0.10;;
16354;SDS011;8287;51.644;8.494;2023-04-01T03:44:12;0.40;;;0.10;;
16354;SDS011;8287;51.644;8.494;2023-04-01T03:46:39;0.47;;;0.22;;
16354;SDS011;8287;51.644;8.494;2023-04-01T03:49:07;0.10;;;0.10;;
16354;SDS011;8287;51.644;8.494;2023-04-01T03:51:36;0.30;;;0.25;;
16354;SDS011;8287;51.644;8.494;2023-04-01T03:54:03;0.88;;;0.10;;
16354;SDS011;8287;51.644;8.494;2023-04-01T03:56:30;0.20;;;0.10;;
16354;SDS011;8287;51.644;8.494;2023-04-01T03:58:56;1.40;;;0.30;;
16354;SDS011;8287;51.644;8.494;2023-04-01T04:01:23;0.32;;;0.10;;
16354;SDS011;8287;51.644;8.494;2023-04-01T04:03:50;0.10;;;0.10;;
16354;SDS011;8287;51.644;8.494;2023-04-01T04:06:18;0.77;;;0.20;;
16354;SDS011;8287;51.644;8.494;2023-04-01T04:08:45;0.45;;;0.28;;
16354;SDS011;8287;51.644;8.494;2023-04-01T04:11:12;0.15;;;0.03;;
16354;SDS011;8287;51.644;8.494;2023-04-01T04:13:39;1.48;;;0.20;;
16354;SDS011;8287;51.644;8.494;2023-04-01T04:16:06;0.30;;;0.20;;
16354;SDS011;8287;51.644;8.494;2023-04-01T04:18:34;0.85;;;0.65;;
16354;SDS011;8287;51.644;8.494;2023-04-01T04:21:01;0.30;;;0.15;;
16354;SDS011;8287;51.644;8.494;2023-04-01T04:23:29;0.00;;;0.00;;
16354;SDS011;8287;51.644;8.494;2023-04-01T04:25:59;0.00;;;0.00;;
16354;SDS011;8287;51.644;8.494;2023-04-01T04:28:27;0.03;;;0.03;;
16354;SDS011;8287;51.644;8.494;2023-04-01T04:30:54;0.20;;;0.10;;
16354;SDS011;8287;51.644;8.494;2023-04-01T04:33:21;0.38;;;0.22;;
16354;SDS011;8287;51.644;8.494;2023-04-01T04:35:48;1.67;;;0.22;;
16354;SDS011;8287;51.644;8.494;2023-04-01T04:38:15;0.10;;;0.10;;
16354;SDS011;8287;51.644;8.494;2023-04-01T04:40:44;0.38;;;0.20;;
16354;SDS011;8287;51.644;8.494;2023-04-01T04:43:10;0.30;;;0.15;;
16354;SDS011;8287;51.644;8.494;2023-04-01T04:45:39;0.20;;;0.20;;
16354;SDS011;8287;51.644;8.494;2023-04-01T04:48:06;0.47;;;0.20;;
16354;SDS011;8287;51.644;8.494;2023-04-01T04:50:34;0.55;;;0.20;;
16354;SDS011;8287;51.644;8.494;2023-04-01T04:53:00;0.10;;;0.10;;
16354;SDS011;8287;51.644;8.494;2023-04-01T04:55:27;0.10;;;0.10;;
16354;SDS011;8287;51.644;8.494;2023-04-01T04:57:55;0.10;;;0.10;;
16354;SDS011;8287;51.644;8.494;2023-04-01T05:00:22;0.10;;;0.10;;
16354;SDS011;8287;51.644;8.494;2023-04-01T05:02:48;0.20;;;0.20;;
16354;SDS011;8287;51.644;8.494;2023-04-01T05:05:15;0.52;;;0.20;;
16354;SDS011;8287;51.644;8.494;2023-04-01T05:07:41;0.52;;;0.10;;
16354;SDS011;8287;51.644;8.494;2023-04-01T05:10:08;0.40;;;0.20;;
16354;SDS011;8287;51.644;8.494;2023-04-01T05:12:35;0.32;;;0.08;;
16354;SDS011;8287;51.644;8.494;2023-04-01T05:15:05;0.43;;;0.30;;
16354;SDS011;8287;51.644;8.494;2023-04-01T05:17:32;0.55;;;0.20;;
16354;SDS011;8287;51.644;8.494;2023-04-01T05:19:59;0.57;;;0.10;;
16354;SDS011;8287;51.644;8.494;2023-04-01T05:22:26;0.35;;;0.20;;
16354;SDS011;8287;51.644;8.494;2023-04-01T05:24:52;0.25;;;0.25;;
16354;SDS011;8287;51.644;8.494;2023-04-01T05:27:19;0.10;;;0.10;;
16354;SDS011;8287;51.644;8.494;2023-04-01T05:29:45;0.10;;;0.10;;
16354;SDS011;8287;51.644;8.494;2023-04-01T05:32:14;0.20;;;0.20;;
16354;SDS011;8287;51.644;8.494;2023-04-01T05:34:40;0.43;;;0.20;;
16354;SDS011;8287;51.644;8.494;2023-04-01T05:37:07;0.10;;;0.10;;
16354;SDS011;8287;51.644;8.494;2023-04-01T05:39:35;0.20;;;0.20;;
16354;SDS011;8287;51.644;8.494;2023-04-01T05:42:02;0.35;;;0.25;;
16354;SDS011;8287;51.644;8.494;2023-04-01T05:44:29;0.20;;;0.20;;
16354;SDS011;8287;51.644;8.494;2023-04-01T05:46:56;1.27;;;0.20;;
16354;SDS011;8287;51.644;8.494;2023-04-01T05:49:23;0.80;;;0.20;;
16354;SDS011;8287;51.644;8.494;2023-04-01T05:51:50;0.20;;;0.20;;
16354;SDS011;8287;51.644;8.494;2023-04-01T05:54:17;0.13;;;0.10;;
16354;SDS011;8287;51.644;8.494;2023-04-01T05:56:44;0.38;;;0.13;;
16354;SDS011;8287;51.644;8.494;2023-04-01T05:59:11;0.10;;;0.10;;
16354;SDS011;8287;51.644;8.494;2023-04-01T06:01:38;1.10;;;0.20;;
16354;SDS011;8287;51.644;8.494;2023-04-01T06:04:05;0.22;;;0.13;;
16354;SDS011;8287;51.644;8.494;2023-04-01T06:06:33;0.40;;;0.15;;
16354;SDS011;8287;51.644;8.494;2023-04-01T06:09:07;0.55;;;0.00;;
16354;SDS011;8287;51.644;8.494;2023-04-01T06:11:42;0.10;;;0.10;;
16354;SDS011;8287;51.644;8.494;2023-04-01T06:14:23;2.63;;;0.13;;
16354;SDS011;8287;51.644;8.494;2023-04-01T06:17:01;0.38;;;0.10;;
16354;SDS011;8287;51.644;8.494;2023-04-01T06:19:43;0.08;;;0.05;;
16354;SDS011;8287;51.644;8.494;2023-04-01T06:22:31;0.68;;;0.30;;
16354;SDS011;8287;51.644;8.494;2023-04-01T06:25:13;0.50;;;0.10;;
16354;SDS011;8287;51.644;8.494;2023-04-01T06:28:03;0.45;;;0.35;;
16354;SDS011;8287;51.644;8.494;2023-04-01T06:30:46;0.90;;;0.30;;
16354;SDS011;8287;51.644;8.494;2023-04-01T06:33:36;3.83;;;0.38;;
16354;SDS011;8287;51.644;8.494;2023-04-01T06:39:22;0.20;;;0.00;;
16354;SDS011;8287;51.644;8.494;2023-04-01T06:42:01;0.10;;;0.10;;
16354;SDS011;8287;51.644;8.494;2023-04-01T06:44:39;0.10;;;0.10;;
16354;SDS011;8287;51.644;8.494;2023-04-01T06:47:22;0.30;;;0.20;;
16354;SDS011;8287;51.644;8.494;2023-04-01T06:50:00;0.47;;;0.20;;
16354;SDS011;8287;51.644;8.494;2023-04-01T06:52:39;2.47;;;0.38;;
16354;SDS011;8287;51.644;8.494;2023-04-01T06:55:20;0.25;;;0.10;;
16354;SDS011;8287;51.644;8.494;2023-04-01T06:57:54;0.68;;;0.35;;
16354;SDS011;8287;51.644;8.494;2023-04-01T07:00:26;0.85;;;0.40;;
16354;SDS011;8287;51.644;8.494;2023-04-01T07:02:59;2.83;;;0.77;;
16354;SDS011;8287;51.644;8.494;2023-04-01T07:05:32;0.20;;;0.20;;
16354;SDS011;8287;51.644;8.494;2023-04-01T07:08:01;2.50;;;0.30;;
16354;SDS011;8287;51.644;8.494;2023-04-01T07:10:34;0.70;;;0.10;;
16354;SDS011;8287;51.644;8.494;2023-04-01T07:13:10;1.85;;;0.20;;
16354;SDS011;8287;51.644;8.494;2023-04-01T07:15:42;0.10;;;0.10;;
16354;SDS011;8287;51.644;8.494;2023-04-01T07:18:12;0.50;;;0.20;;
16354;SDS011;8287;51.644;8.494;2023-04-01T07:20:43;2.05;;;0.13;;
16354;SDS011;8287;51.644;8.494;2023-04-01T07:23:15;0.20;;;0.20;;
16354;SDS011;8287;51.644;8.494;2023-04-01T07:25:51;0.40;;;0.22;;
16354;SDS011;8287;51.644;8.494;2023-04-01T07:28:20;1.63;;;0.30;;
16354;SDS011;8287;51.644;8.494;2023-04-01T07:30:51;0.50;;;0.28;;
16354;SDS011;8287;51.644;8.494;2023-04-01T07:33:24;0.38;;;0.20;;
16354;SDS011;8287;51.644;8.494;2023-04-01T07:35:59;0.60;;;0.20;;
16354;SDS011;8287;51.644;8.494;2023-04-01T07:38:35;0.25;;;0.08;;
16354;SDS011;8287;51.644;8.494;2023-04-01T07:41:16;0.00;;;0.00;;
16354;SDS011;8287;51.644;8.494;2023-04-01T07:43:54;0.10;;;0.10;;
16354;SDS011;8287;51.644;8.494;2023-04-01T07:46:32;0.32;;;0.17;;
16354;SDS011;8287;51.644;8.494;2023-04-01T07:49:10;0.45;;;0.20;;
16354;SDS011;8287;51.644;8.494;2023-04-01T07:51:42;0.10;;;0.10;;
16354;SDS011;8287;51.644;8.494;2023-04-01T07:54:17;0.15;;;0.15;;
16354;SDS011;8287;51.644;8.494;2023-04-01T07:56:54;0.50;;;0.30;;
16354;SDS011;8287;51.644;8.494;2023-04-01T07:59:29;0.32;;;0.20;;
16354;SDS011;8287;51.644;8.494;2023-04-01T08:02:05;0.10;;;0.10;;
16354;SDS011;8287;51.644;8.494;2023-04-01T08:04:42;0.63;;;0.38;;
16354;SDS011;8287;51.644;8.494;2023-04-01T08:07:20;0.32;;;0.30;;
16354;SDS011;8287;51.644;8.494;2023-04-01T08:09:53;1.73;;;0.40;;
16354;SDS011;8287;51.644;8.494;2023-04-01T08:12:30;0.20;;;0.20;;
16354;SDS011;8287;51.644;8.494;2023-04-01T08:15:11;0.20;;;0.20;;
16354;SDS011;8287;51.644;8.494;2023-04-01T08:17:49;0.20;;;0.20;;
16354;SDS011;8287;51.644;8.494;2023-04-01T08:20:28;0.45;;;0.35;;
16354;SDS011;8287;51.644;8.494;2023-04-01T08:23:02;0.52;;;0.40;;
16354;SDS011;8287;51.644;8.494;2023-04-01T08:25:37;3.63;;;0.63;;
16354;SDS011;8287;51.644;8.494;2023-04-01T08:28:12;0.30;;;0.20;;
16354;SDS011;8287;51.644;8.494;2023-04-01T08:30:43;5.57;;;0.30;;
16354;SDS011;8287;51.644;8.494;2023-04-01T08:33:15;0.50;;;0.25;;
16354;SDS011;8287;51.644;8.494;2023-04-01T08:35:46;0.52;;;0.22;;
16354;SDS011;8287;51.644;8.494;2023-04-01T08:38:19;0.52;;;0.30;;
16354;SDS011;8287;51.644;8.494;2023-04-01T08:41:07;0.73;;;0.38;;
16354;SDS011;8287;51.644;8.494;2023-04-01T08:50:19;0.35;;;0.30;;
16354;SDS011;8287;51.644;8.494;2023-04-01T08:52:53;0.47;;;0.40;;
16354;SDS011;8287;51.644;8.494;2023-04-01T08:55:41;0.55;;;0.38;;
16354;SDS011;8287;51.644;8.494;2023-04-01T08:58:35;2.22;;;0.32;;
16354;SDS011;8287;51.644;8.494;2023-04-01T09:01:20;0.25;;;0.20;;
16354;SDS011;8287;51.644;8.494;2023-04-01T09:04:13;1.17;;;0.57;;
16354;SDS011;8287;51.644;8.494;2023-04-01T09:06:51;0.40;;;0.30;;
16354;SDS011;8287;51.644;8.494;2023-04-01T09:09:36;1.15;;;1.05;;
16354;SDS011;8287;51.644;8.494;2023-04-01T09:12:31;0.82;;;0.63;;
16354;SDS011;8287;51.644;8.494;2023-04-01T09:15:20;0.20;;;0.20;;
16354;SDS011;8287;51.644;8.494;2023-04-01T09:18:15;0.30;;;0.25;;
16354;SDS011;8287;51.644;8.494;2023-04-01T09:21:01;1.27;;;0.20;;
16354;SDS011;8287;51.644;8.494;2023-04-01T09:23:52;0.10;;;0.10;;
16354;SDS011;8287;51.644;8.494;2023-04-01T09:26:44;0.10;;;0.10;;
16354;SDS011;8287;51.644;8.494;2023-04-01T09:29:31;0.30;;;0.30;;
16354;SDS011;8287;51.644;8.494;2023-04-01T09:32:22;0.52;;;0.20;;
16354;SDS011;8287;51.644;8.494;2023-04-01T09:35:03;0.55;;;0.35;;
16354;SDS011;8287;51.644;8.494;2023-04-01T09:37:50;0.10;;;0.10;;
16354;SDS011;8287;51.644;8.494;2023-04-01T09:40:21;0.10;;;0.10;;
16354;SDS011;8287;51.644;8.494;2023-04-01T09:43:20;0.20;;;0.20;;
16354;SDS011;8287;51.644;8.494;2023-04-01T09:46:06;0.20;;;0.20;;
16354;SDS011;8287;51.644;8.494;2023-04-01T09:48:44;0.47;;;0.35;;
16354;SDS011;8287;51.644;8.494;2023-04-01T09:51:38;0.43;;;0.15;;
16354;SDS011;8287;51.644;8.494;2023-04-01T09:54:12;0.20;;;0.13;;
16354;SDS011;8287;51.644;8.494;2023-04-01T09:56:55;0.20;;;0.20;;
16354;SDS011;8287;51.644;8.494;2023-04-01T09:59:55;0.15;;;0.15;;
16354;SDS011;8287;51.644;8.494;2023-04-01T10:02:49;0.22;;;0.10;;
16354;SDS011;8287;51.644;8.494;2023-04-01T10:05:53;0.20;;;0.10;;
16354;SDS011;8287;51.644;8.494;2023-04-01T10:08:49;0.30;;;0.30;;
16354;SDS011;8287;51.644;8.494;2023-04-01T10:11:41;0.20;;;0.20;;
16354;SDS011;8287;51.644;8.494;2023-04-01T10:14:29;0.30;;;0.28;;
16354;SDS011;8287;51.644;8.494;2023-04-01T10:17:17;0.40;;;0.40;;
16354;SDS011;8287;51.644;8.494;2023-04-01T10:20:21;0.32;;;0.32;;
16354;SDS011;8287;51.644;8.494;2023-04-01T10:23:03;0.28;;;0.22;;
16354;SDS011;8287;51.644;8.494;2023-04-01T10:28:37;0.65;;;0.40;;
16354;SDS011;8287;51.644;8.494;2023-04-01T10:31:27;0.22;;;0.22;;
16354;SDS011;8287;51.644;8.494;2023-04-01T10:34:26;0.50;;;0.20;;
16354;SDS011;8287;51.644;8.494;2023-04-01T10:37:20;1.00;;;0.45;;
16354;SDS011;8287;51.644;8.494;2023-04-01T10:40:21;0.25;;;0.25;;
16354;SDS011;8287;51.644;8.494;2023-04-01T10:43:12;0.30;;;0.30;;
16354;SDS011;8287;51.644;8.494;2023-04-01T10:46:14;0.70;;;0.17;;
16354;SDS011;8287;51.644;8.494;2023-04-01T10:52:12;1.33;;;1.17;;
16354;SDS011;8287;51.644;8.494;2023-04-01T10:55:14;1.48;;;1.17;;
16354;SDS011;8287;51.644;8.494;2023-04-01T10:58:03;1.13;;;0.90;;
16354;SDS011;8287;51.644;8.494;2023-04-01T11:07:31;1.17;;;0.50;;
16354;SDS011;8287;51.644;8.494;2023-04-01T11:10:25;0.47;;;0.47;;
16354;SDS011;8287;51.644;8.494;2023-04-01T11:13:39;0.50;;;0.50;;
16354;SDS011;8287;51.644;8.494;2023-04-01T11:25:42;0.20;;;0.20;;
16354;SDS011;8287;51.644;8.494;2023-04-01T11:28:23;0.60;;;0.60;;
16354;SDS011;8287;51.644;8.494;2023-04-01T11:31:04;3.47;;;0.57;;
16354;SDS011;8287;51.644;8.494;2023-04-01T11:33:52;0.95;;;0.40;;
16354;SDS011;8287;51.644;8.494;2023-04-01T11:36:26;1.13;;;0.98;;
16354;SDS011;8287;51.644;8.494;2023-04-01T11:39:08;0.70;;;0.35;;
16354;SDS011;8287;51.644;8.494;2023-04-01T11:41:49;0.82;;;0.73;;
16354;SDS011;8287;51.644;8.494;2023-04-01T11:44:21;1.50;;;0.70;;
16354;SDS011;8287;51.644;8.494;2023-04-01T11:46:56;0.40;;;0.40;;
16354;SDS011;8287;51.644;8.494;2023-04-01T11:49:53;0.80;;;0.63;;
16354;SDS011;8287;51.644;8.494;2023-04-01T11:52:44;0.52;;;0.52;;
16354;SDS011;8287;51.644;8.494;2023-04-01T11:55:32;0.50;;;0.50;;
16354;SDS011;8287;51.644;8.494;2023-04-01T11:58:16;1.67;;;1.58;;
16354;SDS011;8287;51.644;8.494;2023-04-01T12:00:58;0.63;;;0.63;;
16354;SDS011;8287;51.644;8.494;2023-04-01T12:03:37;1.02;;;0.93;;
16354;SDS011;8287;51.644;8.494;2023-04-01T12:06:20;1.13;;;1.02;;
16354;SDS011;8287;51.644;8.494;2023-04-01T12:08:54;0.90;;;0.55;;
16354;SDS011;8287;51.644;8.494;2023-04-01T12:11:29;0.77;;;0.77;;
16354;SDS011;8287;51.644;8.494;2023-04-01T12:14:03;0.60;;;0.60;;
16354;SDS011;8287;51.644;8.494;2023-04-01T12:16:46;0.45;;;0.45;;
16354;SDS011;8287;51.644;8.494;2023-04-01T12:19:23;0.43;;;0.43;;
16354;SDS011;8287;51.644;8.494;2023-04-01T12:22:06;1.05;;;0.52;;
16354;SDS011;8287;51.644;8.494;2023-04-01T12:24:46;0.50;;;0.50;;
16354;SDS011;8287;51.644;8.494;2023-04-01T12:27:23;0.38;;;0.38;;
16354;SDS011;8287;51.644;8.494;2023-04-01T12:33:24;0.50;;;0.45;;
16354;SDS011;8287;51.644;8.494;2023-04-01T12:36:13;0.50;;;0.50;;
16354;SDS011;8287;51.644;8.494;2023-04-01T12:38:56;0.60;;;0.40;;
16354;SDS011;8287;51.644;8.494;2023-04-01T12:41:45;2.30;;;0.60;;
16354;SDS011;8287;51.644;8.494;2023-04-01T12:44:26;1.55;;;0.40;;
16354;SDS011;8287;51.644;8.494;2023-04-01T12:47:21;0.80;;;0.80;;
16354;SDS011;8287;51.644;8.494;2023-04-01T12:50:10;0.80;;;0.80;;
16354;SDS011;8287;51.644;8.494;2023-04-01T12:52:50;0.50;;;0.50;;
16354;SDS011;8287;51.644;8.494;2023-04-01T12:55:36;0.52;;;0.52;;
16354;SDS011;8287;51.644;8.494;2023-04-01T12:58:29;0.60;;;0.55;;
16354;SDS011;8287;51.644;8.494;2023-04-01T13:01:29;1.05;;;0.68;;
16354;SDS011;8287;51.644;8.494;2023-04-01T13:07:22;1.05;;;0.90;;
16354;SDS011;8287;51.644;8.494;2023-04-01T13:10:01;1.77;;;0.98;;
16354;SDS011;8287;51.644;8.494;2023-04-01T13:12:45;1.00;;;1.00;;
16354;SDS011;8287;51.644;8.494;2023-04-01T13:15:26;1.70;;;1.20;;
16354;SDS011;8287;51.644;8.494;2023-04-01T13:18:03;1.00;;;1.00;;
16354;SDS011;8287;51.644;8.494;2023-04-01T13:20:42;1.02;;;1.02;;
16354;SDS011;8287;51.644;8.494;2023-04-01T13:23:19;1.48;;;1.08;;
16354;SDS011;8287;51.644;8.494;2023-04-01T13:25:59;0.90;;;0.90;;
16354;SDS011;8287;51.644;8.494;2023-04-01T13:28:38;1.10;;;1.00;;
16354;SDS011;8287;51.644;8.494;2023-04-01T13:31:12;1.45;;;1.33;;
16354;SDS011;8287;51.644;8.494;2023-04-01T13:33:50;1.50;;;1.40;;
16354;SDS011;8287;51.644;8.494;2023-04-01T13:36:32;2.67;;;1.50;;
16354;SDS011;8287;51.644;8.494;2023-04-01T13:39:08;5.70;;;5.15;;
16354;SDS011;8287;51.644;8.494;2023-04-01T13:41:55;2.30;;;2.15;;
16354;SDS011;8287;51.644;8.494;2023-04-01T13:44:33;3.58;;;2.75;;
16354;SDS011;8287;51.644;8.494;2023-04-01T13:47:10;2.88;;;2.33;;
16354;SDS011;8287;51.644;8.494;2023-04-01T13:49:57;2.13;;;1.92;;
16354;SDS011;8287;51.644;8.494;2023-04-01T13:52:45;2.00;;;1.77;;
16354;SDS011;8287;51.644;8.494;2023-04-01T13:58:24;1.58;;;1.48;;
16354;SDS011;8287;51.644;8.494;2023-04-01T14:01:15;1.17;;;1.13;;
16354;SDS011;8287;51.644;8.494;2023-04-01T14:06:52;1.77;;;1.65;;
16354;SDS011;8287;51.644;8.494;2023-04-01T14:09:30;2.13;;;1.77;;
16354;SDS011;8287;51.644;8.494;2023-04-01T14:12:21;1.40;;;1.30;;
16354;SDS011;8287;51.644;8.494;2023-04-01T14:15:03;1.33;;;1.23;;
16354;SDS011;8287;51.644;8.494;2023-04-01T14:17:54;0.73;;;0.73;;
16354;SDS011;8287;51.644;8.494;2023-04-01T14:20:36;0.98;;;0.93;;
16354;SDS011;8287;51.644;8.494;2023-04-01T14:23:11;1.77;;;0.90;;
16354;SDS011;8287;51.644;8.494;2023-04-01T14:25:55;1.08;;;0.80;;
16354;SDS011;8287;51.644;8.494;2023-04-01T14:28:35;1.15;;;0.95;;
16354;SDS011;8287;51.644;8.494;2023-04-01T14:31:23;0.93;;;0.93;;
16354;SDS011;8287;51.644;8.494;2023-04-01T14:34:00;0.77;;;0.77;;
16354;SDS011;8287;51.644;8.494;2023-04-01T14:36:42;0.90;;;0.90;;
16354;SDS011;8287;51.644;8.494;2023-04-01T14:45:32;1.05;;;0.95;;
16354;SDS011;8287;51.644;8.494;2023-04-01T14:48:14;0.70;;;0.70;;
16354;SDS011;8287;51.644;8.494;2023-04-01T14:50:52;1.10;;;1.00;;
16354;SDS011;8287;51.644;8.494;2023-04-01T14:53:26;1.38;;;1.00;;
16354;SDS011;8287;51.644;8.494;2023-04-01T14:55:56;0.80;;;0.80;;
16354;SDS011;8287;51.644;8.494;2023-04-01T14:58:24;1.20;;;0.60;;
16354;SDS011;8287;51.644;8.494;2023-04-01T15:00:59;3.03;;;0.65;;
16354;SDS011;8287;51.644;8.494;2023-04-01T15:03:37;1.13;;;1.08;;
16354;SDS011;8287;51.644;8.494;2023-04-01T15:09:04;2.63;;;1.98;;
16354;SDS011;8287;51.644;8.494;2023-04-01T15:11:43;1.75;;;1.60;;
16354;SDS011;8287;51.644;8.494;2023-04-01T15:14:21;1.65;;;1.55;;
16354;SDS011;8287;51.644;8.494;2023-04-01T15:17:05;1.45;;;1.35;;
16354;SDS011;8287;51.644;8.494;2023-04-01T15:19:56;3.25;;;1.63;;
16354;SDS011;8287;51.644;8.494;2023-04-01T15:22:44;1.85;;;1.75;;
16354;SDS011;8287;51.644;8.494;2023-04-01T15:25:31;1.80;;;1.70;;
16354;SDS011;8287;51.644;8.494;2023-04-01T15:28:11;3.00;;;2.65;;
16354;SDS011;8287;51.644;8.494;2023-04-01T15:30:51;7.07;;;4.40;;
16354;SDS011;8287;51.644;8.494;2023-04-01T15:33:39;1.75;;;1.65;;
16354;SDS011;8287;51.644;8.494;2023-04-01T15:36:18;1.50;;;1.40;;
16354;SDS011;8287;51.644;8.494;2023-04-01T15:38:55;1.00;;;1.00;;
16354;SDS011;8287;51.644;8.494;2023-04-01T15:41:35;1.20;;;0.80;;
16354;SDS011;8287;51.644;8.494;2023-04-01T15:44:24;1.13;;;1.02;;
16354;SDS011;8287;51.644;8.494;2023-04-01T15:47:05;1.05;;;1.05;;
16354;SDS011;8287;51.644;8.494;2023-04-01T15:49:50;1.05;;;1.05;;
16354;SDS011;8287;51.644;8.494;2023-04-01T15:52:24;1.60;;;1.50;;
16354;SDS011;8287;51.644;8.494;2023-04-01T15:55:11;1.88;;;1.67;;
16354;SDS011;8287;51.644;8.494;2023-04-01T15:57:55;2.40;;;2.20;;
16354;SDS011;8287;51.644;8.494;2023-04-01T16:00:44;2.42;;;2.22;;
16354;SDS011;8287;51.644;8.494;2023-04-01T16:03:22;2.47;;;2.00;;
16354;SDS011;8287;51.644;8.494;2023-04-01T16:06:10;2.30;;;2.13;;
16354;SDS011;8287;51.644;8.494;2023-04-01T16:08:59;2.40;;;2.20;;
16354;SDS011;8287;51.644;8.494;2023-04-01T16:11:36;4.35;;;3.35;;
16354;SDS011;8287;51.644;8.494;2023-04-01T16:14:12;5.93;;;4.05;;
16354;SDS011;8287;51.644;8.494;2023-04-01T16:16:53;4.07;;;3.63;;
16354;SDS011;8287;51.644;8.494;2023-04-01T16:19:33;2.63;;;2.42;;
16354;SDS011;8287;51.644;8.494;2023-04-01T16:22:08;3.28;;;2.70;;
16354;SDS011;8287;51.644;8.494;2023-04-01T16:24:43;3.80;;;3.00;;
16354;SDS011;8287;51.644;8.494;2023-04-01T16:27:15;2.20;;;2.00;;
16354;SDS011;8287;51.644;8.494;2023-04-01T16:29:51;2.30;;;2.10;;
16354;SDS011;8287;51.644;8.494;2023-04-01T16:35:14;2.22;;;2.03;;
16354;SDS011;8287;51.644;8.494;2023-04-01T16:37:49;2.50;;;2.22;;
16354;SDS011;8287;51.644;8.494;2023-04-01T16:40:23;1.52;;;1.42;;
16354;SDS011;8287;51.644;8.494;2023-04-01T16:43:06;2.00;;;1.90;;
16354;SDS011;8287;51.644;8.494;2023-04-01T16:45:40;2.95;;;2.67;;
16354;SDS011;8287;51.644;8.494;2023-04-01T16:48:11;1.73;;;1.63;;
16354;SDS011;8287;51.644;8.494;2023-04-01T16:50:42;1.85;;;1.73;;
16354;SDS011;8287;51.644;8.494;2023-04-01T16:53:16;1.25;;;1.25;;
16354;SDS011;8287;51.644;8.494;2023-04-01T16:55:48;2.08;;;1.88;;